Terminal Aerodrome Forecast
Issued by NWS

Home | Current Version | Previous Version | Graphics & Text | Print | Product List | Glossary On
Versions: 1 2 3 4 5 6 7 8 9 10 11 12 13 14 15 16 17 18 19 20 21 22 23 24 25 26 27 28 29 30 31 32 33 34 35 36
637
FTUS43 KLOT 261735
TAFORD
TAF
KORD 261735Z 2618/2724 03013KT P6SM OVC015
     FM262300 04013KT P6SM BKN025 OVC050
     FM270400 04013KT P6SM SCT025 OVC040
     FM271500 07013G20KT P6SM SCT025 BKN040
     FM272100 07016G23KT P6SM -SHRA SCT030 OVC050=

USA.gov is the U.S. government's official web portal to all federal, state and local government web resources and services.